createdAt,value
2023-03-30T00:00:21.610Z,99604.94
2023-03-30T00:01:24.327Z,99606.88
2023-03-30T00:02:26.238Z,99604.94
2023-03-30T00:03:29.821Z,99603.63
2023-03-30T00:04:34.683Z,99598.69
2023-03-30T00:05:39.947Z,99608.41
2023-03-30T00:06:42.985Z,99607.31
2023-03-30T00:07:46.017Z,99607.81
2023-03-30T00:08:48.136Z,99600.72
2023-03-30T00:09:50.975Z,99603.47
2023-03-30T00:10:54.737Z,99605.41
2023-03-30T00:12:02.761Z,99607.41
2023-03-30T00:13:04.579Z,99598.06
2023-03-30T00:14:08.825Z,99604.41
2023-03-30T00:15:12.435Z,99611.63
2023-03-30T00:16:15.391Z,99604.75
2023-03-30T00:17:17.630Z,99603.59
2023-03-30T00:18:20.283Z,99602.41
2023-03-30T00:19:21.992Z,99604.19
2023-03-30T00:20:24.813Z,99599.00
2023-03-30T00:21:28.276Z,99598.16
2023-03-30T00:22:31.103Z,99604.94
2023-03-30T00:23:32.979Z,99593.63
2023-03-30T00:24:36.714Z,99595.91
2023-03-30T00:25:38.442Z,99586.53
2023-03-30T00:26:41.399Z,99592.63
2023-03-30T00:27:43.433Z,99601.75
2023-03-30T00:28:46.678Z,99606.34
2023-03-30T00:29:48.379Z,99600.34
2023-03-30T00:30:52.715Z,99603.22
2023-03-30T00:31:54.731Z,99605.47
2023-03-30T00:32:57.434Z,99608.22
2023-03-30T00:33:59.278Z,99597.75
2023-03-30T00:35:02.635Z,99607.72
2023-03-30T00:36:05.230Z,99602.81
2023-03-30T00:37:09.321Z,99608.34
2023-03-30T00:38:11.025Z,99611.94
2023-03-30T00:39:14.381Z,99605.91
2023-03-30T00:40:19.096Z,99607.25
2023-03-30T00:41:21.846Z,99605.34
2023-03-30T00:42:24.287Z,99590.91
2023-03-30T00:43:27.777Z,99591.75
2023-03-30T00:45:15.855Z,99589.47
2023-03-30T00:46:18.650Z,99589.22
2023-03-30T00:47:21.487Z,99575.19
2023-03-30T00:48:27.369Z,99572.44
2023-03-30T00:49:29.587Z,99558.63
2023-03-30T00:50:36.050Z,99566.66
2023-03-30T00:51:41.668Z,99560.88
2023-03-30T00:52:46.293Z,99561.38
2023-03-30T00:53:52.008Z,99561.94
2023-03-30T00:54:55.906Z,99564.38
2023-03-30T00:55:59.491Z,99564.97
2023-03-30T00:57:01.464Z,99564.38
2023-03-30T00:58:05.453Z,99572.09
2023-03-30T00:59:09.090Z,99562.13
2023-03-30T01:00:15.020Z,99560.44
2023-03-30T01:01:25.508Z,99563.44
2023-03-30T01:02:29.739Z,99567.03
2023-03-30T01:03:33.623Z,99561.78
2023-03-30T01:04:37.614Z,99566.19
2023-03-30T01:05:40.056Z,99554.31
2023-03-30T01:06:43.480Z,99560.69
2023-03-30T01:07:49.800Z,99566.81
2023-03-30T01:08:53.506Z,99554.81
2023-03-30T01:09:55.211Z,99551.81
2023-03-30T01:11:09.628Z,99556.91
2023-03-30T01:12:12.431Z,99562.78
2023-03-30T01:13:15.121Z,99569.13
2023-03-30T01:14:18.638Z,99565.03
2023-03-30T01:15:20.969Z,99563.34
2023-03-30T01:16:29.769Z,99557.59
2023-03-30T01:17:37.136Z,99560.56
2023-03-30T01:18:48.472Z,99551.72
2023-03-30T01:20:12.596Z,99556.97
2023-03-30T01:21:42.935Z,99552.06
2023-03-30T01:23:08.751Z,99553.41
2023-03-30T01:24:49.369Z,99563.59
2023-03-30T01:26:06.945Z,99556.97
2023-03-30T01:27:21.930Z,99568.75
2023-03-30T01:28:32.611Z,99565.09
2023-03-30T01:29:45.661Z,99560.66
2023-03-30T01:31:39.525Z,99565.91
2023-03-30T01:33:06.636Z,99562.66
2023-03-30T01:34:32.586Z,99552.94
2023-03-30T01:36:00.850Z,99562.91
2023-03-30T01:37:14.662Z,99565.19
2023-03-30T01:38:37.086Z,99554.38
2023-03-30T01:39:47.208Z,99567.34
2023-03-30T01:40:54.179Z,99566.50
2023-03-30T01:41:58.599Z,99568.19
2023-03-30T01:43:08.535Z,99586.06
2023-03-30T01:44:14.493Z,99569.50
2023-03-30T01:45:24.168Z,99572.53
2023-03-30T01:46:31.913Z,99576.47
2023-03-30T01:47:37.800Z,99566.63
2023-03-30T01:48:45.429Z,99572.16
2023-03-30T01:49:53.891Z,99562.56
2023-03-30T01:50:57.300Z,99559.56
2023-03-30T01:52:04.283Z,99565.66
2023-03-30T01:53:10.397Z,99556.53
2023-03-30T01:54:15.520Z,99563.50
2023-03-30T01:55:21.024Z,99562.66
2023-03-30T01:56:27.254Z,99557.16
2023-03-30T01:57:32.388Z,99562.06
2023-03-30T01:58:37.330Z,99558.22
2023-03-30T01:59:43.503Z,99559.91
2023-03-30T02:00:48.743Z,99558.81
2023-03-30T02:01:53.972Z,99559.66
2023-03-30T02:03:01.398Z,99564.09
2023-03-30T02:04:04.913Z,99580.41
2023-03-30T02:05:09.104Z,99575.72
2023-03-30T02:06:15.558Z,99580.06
2023-03-30T02:07:21.231Z,99584.16
2023-03-30T02:08:27.160Z,99584.41
2023-03-30T02:09:31.261Z,99586.56
2023-03-30T02:10:36.155Z,99584.31
2023-03-30T02:11:41.227Z,99589.56
2023-03-30T02:12:44.690Z,99573.28
2023-03-30T02:13:51.055Z,99579.53
2023-03-30T02:14:53.240Z,99572.91
2023-03-30T02:15:58.772Z,99575.94
2023-03-30T02:17:02.844Z,99577.84
2023-03-30T02:18:06.003Z,99581.91
2023-03-30T02:19:07.885Z,99580.00
2023-03-30T02:20:12.485Z,99584.69
2023-03-30T02:21:14.569Z,99587.09
2023-03-30T02:22:19.330Z,99581.34
2023-03-30T02:23:22.546Z,99594.50
2023-03-30T02:24:27.134Z,99597.66
2023-03-30T02:25:29.862Z,99594.06
2023-03-30T02:26:34.058Z,99589.72
2023-03-30T02:27:37.942Z,99587.69
2023-03-30T02:28:40.046Z,99592.59
2023-03-30T02:29:44.879Z,99604.97
2023-03-30T02:30:47.190Z,99605.81
2023-03-30T02:31:51.648Z,99592.03
2023-03-30T02:32:54.994Z,99593.94
2023-03-30T02:34:08.224Z,99576.19
2023-03-30T02:35:27.282Z,99569.84
2023-03-30T02:36:43.058Z,99571.16
2023-03-30T02:38:19.635Z,99568.66
2023-03-30T02:39:30.011Z,99562.28
2023-03-30T02:40:38.477Z,99560.38
2023-03-30T02:41:54.425Z,99555.19
2023-03-30T02:43:10.162Z,99546.69
2023-03-30T02:44:16.211Z,99562.41
2023-03-30T02:45:24.958Z,99552.19
2023-03-30T02:46:54.777Z,99549.69
2023-03-30T02:48:04.003Z,99543.09
2023-03-30T02:49:15.862Z,99556.66
2023-03-30T02:50:23.435Z,99561.31
2023-03-30T02:51:37.380Z,99561.56
2023-03-30T02:52:46.208Z,99563.25
2023-03-30T02:53:54.492Z,99552.44
2023-03-30T02:55:01.562Z,99540.31
2023-03-30T02:56:11.444Z,99547.53
2023-03-30T02:57:19.283Z,99567.41
2023-03-30T02:58:26.446Z,99568.88
2023-03-30T02:59:32.441Z,99577.38
2023-03-30T03:00:39.857Z,99587.56
2023-03-30T03:01:44.081Z,99597.19
2023-03-30T03:02:50.351Z,99603.19
2023-03-30T03:03:53.845Z,99604.25
2023-03-30T03:04:56.706Z,99600.06
2023-03-30T03:06:02.530Z,99599.22
2023-03-30T03:07:05.336Z,99599.72
2023-03-30T03:08:07.128Z,99591.44
2023-03-30T03:09:10.360Z,99587.63
2023-03-30T03:10:12.122Z,99577.66
2023-03-30T03:11:14.954Z,99582.34
2023-03-30T03:12:17.999Z,99590.38
2023-03-30T03:13:22.130Z,99594.69
2023-03-30T03:14:26.578Z,99595.53
2023-03-30T03:15:37.211Z,99590.59
2023-03-30T03:16:39.470Z,99590.59
2023-03-30T03:17:45.256Z,99590.38
2023-03-30T03:18:47.096Z,99603.34
2023-03-30T03:19:50.040Z,99598.53
2023-03-30T03:20:51.847Z,99608.47
2023-03-30T03:21:54.587Z,99612.06
2023-03-30T03:22:56.387Z,99622.75
2023-03-30T03:23:59.079Z,99617.47
2023-03-30T03:25:02.547Z,99629.13
2023-03-30T03:26:05.924Z,99614.25
2023-03-30T03:27:08.700Z,99604.28
2023-03-30T03:28:12.720Z,99601.31
2023-03-30T03:29:14.638Z,99602.13
2023-03-30T03:30:17.622Z,99601.03
2023-03-30T03:31:20.468Z,99595.28
2023-03-30T03:32:22.319Z,99600.19
2023-03-30T03:33:25.791Z,99604.06
2023-03-30T03:34:31.579Z,99610.66
2023-03-30T03:35:34.393Z,99602.84
2023-03-30T03:36:37.202Z,99588.81
2023-03-30T03:37:39.015Z,99590.72
2023-03-30T03:38:41.671Z,99588.81
2023-03-30T03:39:43.406Z,99589.88
2023-03-30T03:40:50.738Z,99589.66
2023-03-30T03:41:52.578Z,99588.31
2023-03-30T03:42:55.317Z,99582.78
2023-03-30T03:43:59.357Z,99575.97
2023-03-30T03:45:01.107Z,99559.19
2023-03-30T03:46:03.936Z,99549.56
2023-03-30T03:47:05.695Z,99543.56
2023-03-30T03:48:08.748Z,99543.09
2023-03-30T03:49:10.473Z,99553.03
2023-03-30T03:50:13.408Z,99543.66
2023-03-30T03:51:15.344Z,99535.75
2023-03-30T03:52:18.163Z,99531.06
2023-03-30T03:53:20.500Z,99534.41
2023-03-30T03:54:23.394Z,99523.38
2023-03-30T03:55:25.187Z,99516.78
2023-03-30T03:56:28.007Z,99510.19
2023-03-30T03:57:29.825Z,99509.09
2023-03-30T03:58:32.761Z,99502.47
2023-03-30T03:59:35.849Z,99493.13
2023-03-30T04:00:38.827Z,99484.00
2023-03-30T04:01:40.808Z,99476.56
2023-03-30T04:02:43.658Z,99474.41
2023-03-30T04:03:45.789Z,99464.19
2023-03-30T04:04:48.582Z,99460.13
2023-03-30T04:05:50.385Z,99450.78
2023-03-30T04:06:53.072Z,99459.03
2023-03-30T04:07:56.447Z,99458.22
2023-03-30T04:08:59.218Z,99454.59
2023-03-30T04:10:01.124Z,99451.84
2023-03-30T04:11:07.975Z,99454.59
2023-03-30T04:12:09.739Z,99451.84
2023-03-30T04:13:12.472Z,99445.25
2023-03-30T04:14:14.290Z,99443.31
2023-03-30T04:15:18.386Z,99445.81
2023-03-30T04:16:20.184Z,99435.63
2023-03-30T04:17:23.871Z,99442.81
2023-03-30T04:18:31.477Z,99433.47
2023-03-30T04:19:36.115Z,99428.78
2023-03-30T04:20:37.935Z,99429.34
2023-03-30T04:21:46.942Z,99428.28
2023-03-30T04:22:50.175Z,99429.94
2023-03-30T04:23:53.054Z,99422.75
2023-03-30T04:24:55.481Z,99417.22
2023-03-30T04:25:58.709Z,99413.38
2023-03-30T04:27:00.443Z,99421.66
2023-03-30T04:28:04.942Z,99413.38
2023-03-30T04:29:08.111Z,99413.38
2023-03-30T04:30:11.890Z,99417.22
2023-03-30T04:31:15.073Z,99411.72
2023-03-30T04:32:20.938Z,99409.19
2023-03-30T04:33:22.854Z,99404.50
2023-03-30T04:34:26.729Z,99400.91
2023-03-30T04:35:30.294Z,99402.84
2023-03-30T04:36:32.957Z,99395.66
2023-03-30T04:37:35.278Z,99398.16
2023-03-30T04:38:38.063Z,99400.09
2023-03-30T04:39:39.744Z,99401.75
2023-03-30T04:40:42.501Z,99397.34
2023-03-30T04:41:45.903Z,99395.66
2023-03-30T04:42:49.888Z,99403.94
2023-03-30T04:43:51.701Z,99403.94
2023-03-30T04:44:54.357Z,99405.63
2023-03-30T04:45:56.678Z,99409.19
2023-03-30T04:47:01.013Z,99418.31
2023-03-30T04:48:06.289Z,99413.63
2023-03-30T04:49:09.047Z,99425.75
2023-03-30T04:50:10.874Z,99418.31
2023-03-30T04:51:13.506Z,99420.00
2023-03-30T04:52:15.461Z,99426.59
2023-03-30T04:53:19.134Z,99429.63
2023-03-30T04:54:21.073Z,99442.81
2023-03-30T04:55:24.084Z,99453.03
2023-03-30T04:56:26.296Z,99465.00
2023-03-30T04:57:29.100Z,99490.59
2023-03-30T04:58:30.890Z,99500.63
2023-03-30T04:59:33.600Z,99504.91
2023-03-30T05:00:35.314Z,99515.28
2023-03-30T05:01:38.004Z,99519.59
2023-03-30T05:02:41.318Z,99510.38
2023-03-30T05:03:44.236Z,99502.09
2023-03-30T05:04:46.119Z,99508.13
2023-03-30T05:05:48.875Z,99500.31
2023-03-30T05:06:50.672Z,99504.41
2023-03-30T05:07:54.446Z,99502.38
2023-03-30T05:08:56.327Z,99500.81
2023-03-30T05:09:58.987Z,99504.09
2023-03-30T05:11:02.563Z,99500.13
2023-03-30T05:12:05.946Z,99501.72
2023-03-30T05:13:07.650Z,99496.91
2023-03-30T05:14:10.408Z,99497.16
2023-03-30T05:15:12.251Z,99492.59
2023-03-30T05:16:14.983Z,99491.75
2023-03-30T05:17:16.812Z,99494.16
2023-03-30T05:18:20.994Z,99492.25
2023-03-30T05:19:22.728Z,99500.75
2023-03-30T05:20:25.510Z,99490.22
2023-03-30T05:21:27.212Z,99491.53
2023-03-30T05:22:30.765Z,99484.56
2023-03-30T05:23:32.626Z,99491.13
2023-03-30T05:24:35.350Z,99481.44
2023-03-30T05:25:37.080Z,99477.84
2023-03-30T05:26:40.030Z,99458.78
2023-03-30T05:27:41.762Z,99466.22
2023-03-30T05:28:44.488Z,99451.84
2023-03-30T05:29:47.206Z,99449.34
2023-03-30T05:30:54.546Z,99459.75
2023-03-30T05:31:56.242Z,99453.66
2023-03-30T05:32:58.917Z,99455.78
2023-03-30T05:34:02.057Z,99453.28
2023-03-30T05:35:05.485Z,99456.28
2023-03-30T05:36:07.907Z,99456.53
2023-03-30T05:37:10.621Z,99467.78
2023-03-30T05:38:12.319Z,99470.78
2023-03-30T05:39:15.276Z,99480.72
2023-03-30T05:40:18.224Z,99481.81
2023-03-30T05:41:20.921Z,99490.06
2023-03-30T05:42:22.666Z,99489.22
2023-03-30T05:43:25.348Z,99499.41
2023-03-30T05:44:27.047Z,99498.56
2023-03-30T05:45:29.868Z,99496.03
2023-03-30T05:46:31.905Z,99505.41
2023-03-30T05:47:35.597Z,99518.34
2023-03-30T05:48:37.337Z,99511.00
2023-03-30T05:49:41.379Z,99514.84
2023-03-30T05:50:43.186Z,99516.75
2023-03-30T05:51:46.110Z,99528.75
2023-03-30T05:52:48.262Z,99520.47
2023-03-30T05:53:50.988Z,99521.28
2023-03-30T05:54:52.708Z,99535.53
2023-03-30T05:55:55.569Z,99537.44
2023-03-30T05:57:27.707Z,99538.28
2023-03-30T05:58:29.421Z,99539.00
2023-03-30T05:59:37.526Z,99543.31
2023-03-30T06:00:41.587Z,99541.63
2023-03-30T06:01:44.949Z,99544.25
2023-03-30T06:02:47.228Z,99542.56
2023-03-30T06:03:50.224Z,99538.25
2023-03-30T06:04:53.686Z,99540.38
2023-03-30T06:05:56.462Z,99543.13
2023-03-30T06:06:58.177Z,99545.03
2023-03-30T06:08:01.686Z,99548.28
2023-03-30T06:09:04.318Z,99546.84
2023-03-30T06:10:08.171Z,99548.50
2023-03-30T06:11:09.922Z,99543.47
2023-03-30T06:12:12.590Z,99531.25
2023-03-30T06:13:14.383Z,99540.34
2023-03-30T06:14:17.319Z,99547.16
2023-03-30T06:15:19.233Z,99542.97
2023-03-30T06:16:22.038Z,99542.97
2023-03-30T06:17:23.928Z,99536.25
2023-03-30T06:18:26.649Z,99536.25
2023-03-30T06:19:28.487Z,99531.19
2023-03-30T06:20:32.551Z,99536.34
2023-03-30T06:21:34.246Z,99527.06
2023-03-30T06:22:36.979Z,99519.88
2023-03-30T06:23:40.834Z,99516.91
2023-03-30T06:24:43.523Z,99534.91
2023-03-30T06:25:52.600Z,99535.09
2023-03-30T06:26:55.937Z,99540.41
2023-03-30T06:27:58.942Z,99541.88
2023-03-30T06:29:02.428Z,99556.50
2023-03-30T06:30:06.676Z,99553.84
2023-03-30T06:31:09.189Z,99558.25
2023-03-30T06:32:11.951Z,99566.91
2023-03-30T06:33:13.749Z,99561.16
2023-03-30T06:34:16.535Z,99564.38
2023-03-30T06:35:18.269Z,99553.16
2023-03-30T06:36:22.415Z,99536.03
2023-03-30T06:37:45.076Z,99533.97
2023-03-30T06:38:48.363Z,99518.94
2023-03-30T06:39:51.587Z,99517.94
2023-03-30T06:40:54.333Z,99519.16
2023-03-30T06:41:56.143Z,99510.28
2023-03-30T06:42:58.981Z,99514.22
2023-03-30T06:44:00.860Z,99505.97
2023-03-30T06:45:03.546Z,99513.66
2023-03-30T06:46:06.137Z,99520.34
2023-03-30T06:47:09.123Z,99503.00
2023-03-30T06:48:10.959Z,99510.19
2023-03-30T06:49:14.143Z,99513.56
2023-03-30T06:50:15.997Z,99517.38
2023-03-30T06:51:19.782Z,99513.31
2023-03-30T06:52:22.908Z,99507.31
2023-03-30T06:53:25.745Z,99500.59
2023-03-30T06:54:27.767Z,99504.63
2023-03-30T06:55:30.885Z,99525.94
2023-03-30T06:56:32.706Z,99526.50
2023-03-30T06:57:35.450Z,99534.38
2023-03-30T06:58:38.986Z,99525.91
2023-03-30T06:59:40.734Z,99519.56
2023-03-30T07:00:43.412Z,99509.41
2023-03-30T07:01:45.818Z,99521.78
2023-03-30T07:02:48.530Z,99526.66
2023-03-30T07:03:53.337Z,99533.78
2023-03-30T07:04:55.687Z,99534.22
2023-03-30T07:05:58.486Z,99521.84
2023-03-30T07:07:00.891Z,99533.84
2023-03-30T07:08:06.023Z,99523.06
2023-03-30T07:09:08.034Z,99517.72
2023-03-30T07:10:11.812Z,99504.13
2023-03-30T07:11:14.483Z,99515.34
2023-03-30T07:12:16.497Z,99515.59
2023-03-30T07:13:19.268Z,99520.72
2023-03-30T07:14:21.051Z,99515.81
2023-03-30T07:15:24.443Z,99515.59
2023-03-30T07:16:26.279Z,99513.56
2023-03-30T07:17:29.306Z,99515.03
2023-03-30T07:18:31.511Z,99517.78
2023-03-30T07:19:34.330Z,99513.34
2023-03-30T07:20:37.000Z,99515.88
2023-03-30T07:21:38.693Z,99521.97
2023-03-30T07:22:41.804Z,99513.97
2023-03-30T07:23:44.941Z,99494.09
2023-03-30T07:24:47.736Z,99494.72
2023-03-30T07:25:49.717Z,99488.59
2023-03-30T07:26:52.586Z,99482.03
2023-03-30T07:27:55.935Z,99468.28
2023-03-30T07:28:58.757Z,99457.28
2023-03-30T07:30:10.252Z,99446.03
2023-03-30T07:31:21.952Z,99426.09
2023-03-30T07:32:23.875Z,99425.59
2023-03-30T07:33:29.738Z,99420.94
2023-03-30T07:34:33.544Z,99446.28
2023-03-30T07:35:35.286Z,99462.59
2023-03-30T07:36:38.044Z,99460.06
2023-03-30T07:37:40.023Z,99473.59
2023-03-30T07:38:42.914Z,99470.84
2023-03-30T07:39:46.974Z,99478.34
2023-03-30T07:40:49.669Z,99485.44
2023-03-30T07:41:51.665Z,99495.13
2023-03-30T07:42:54.378Z,99516.47
2023-03-30T07:43:57.091Z,99526.19
2023-03-30T07:44:59.736Z,99531.81
2023-03-30T07:46:02.526Z,99542.31
2023-03-30T07:47:06.741Z,99564.00
2023-03-30T07:48:09.514Z,99559.03
2023-03-30T07:49:11.312Z,99548.00
2023-03-30T07:50:14.032Z,99550.31
2023-03-30T07:51:16.064Z,99538.91
2023-03-30T07:52:18.766Z,99534.06
2023-03-30T07:53:22.754Z,99536.97
2023-03-30T07:54:25.571Z,99543.31
2023-03-30T07:55:28.818Z,99552.84
2023-03-30T07:56:33.415Z,99536.25
2023-03-30T07:57:36.128Z,99531.50
2023-03-30T07:58:37.810Z,99529.41
2023-03-30T07:59:40.449Z,99536.66
2023-03-30T08:00:42.175Z,99521.56
2023-03-30T08:01:45.090Z,99515.00
2023-03-30T08:02:46.905Z,99509.97
2023-03-30T08:03:49.779Z,99517.13
2023-03-30T08:04:53.979Z,99523.25
2023-03-30T08:05:59.441Z,99517.31
2023-03-30T08:07:04.122Z,99520.06
2023-03-30T08:08:07.838Z,99520.13
2023-03-30T08:09:09.588Z,99511.88
2023-03-30T08:10:12.977Z,99527.06
2023-03-30T08:11:17.094Z,99535.97
2023-03-30T08:12:18.854Z,99550.31
2023-03-30T08:13:22.056Z,99546.97
2023-03-30T08:14:26.522Z,99551.69
2023-03-30T08:15:29.221Z,99571.06
2023-03-30T08:16:32.498Z,99563.03
2023-03-30T08:17:34.354Z,99562.50
2023-03-30T08:18:38.072Z,99559.06
2023-03-30T08:19:39.790Z,99566.09
2023-03-30T08:20:43.844Z,99567.06
2023-03-30T08:21:47.187Z,99555.00
2023-03-30T08:22:48.846Z,99555.59
2023-03-30T08:23:51.499Z,99564.59
2023-03-30T08:24:53.191Z,99558.25
2023-03-30T08:25:58.272Z,99560.34
2023-03-30T08:27:02.416Z,99565.53
2023-03-30T08:28:05.602Z,99556.81
2023-03-30T08:29:08.384Z,99550.72
2023-03-30T08:30:13.308Z,99555.03
2023-03-30T08:31:18.125Z,99564.16
2023-03-30T08:32:21.232Z,99582.94
2023-03-30T08:33:24.262Z,99565.72
2023-03-30T08:34:27.486Z,99571.63
2023-03-30T08:35:29.217Z,99564.78
2023-03-30T08:36:31.916Z,99571.38
2023-03-30T08:37:34.881Z,99564.94
2023-03-30T08:38:37.648Z,99573.56
2023-03-30T08:39:39.501Z,99572.97
2023-03-30T08:40:42.650Z,99568.66
2023-03-30T08:42:11.742Z,99580.41
2023-03-30T08:43:34.498Z,99560.41
2023-03-30T08:44:37.030Z,99570.56
2023-03-30T08:45:42.737Z,99567.72
2023-03-30T08:46:45.053Z,99567.97
2023-03-30T08:47:50.338Z,99553.84
2023-03-30T08:48:54.032Z,99550.78
2023-03-30T08:50:00.290Z,99558.78
2023-03-30T08:51:08.791Z,99554.72
2023-03-30T08:52:15.365Z,99551.13
2023-03-30T08:53:18.026Z,99548.75
2023-03-30T08:54:22.405Z,99555.22
2023-03-30T08:55:30.889Z,99545.78
2023-03-30T08:56:36.007Z,99556.44
2023-03-30T08:57:48.298Z,99572.00
2023-03-30T08:58:57.229Z,99567.72
2023-03-30T09:00:10.125Z,99570.88
2023-03-30T09:01:20.111Z,99573.91
2023-03-30T09:02:24.845Z,99576.22
2023-03-30T09:03:30.202Z,99576.44
2023-03-30T09:04:43.562Z,99574.41
2023-03-30T09:05:51.098Z,99575.13
2023-03-30T09:06:55.157Z,99572.38
2023-03-30T09:08:04.490Z,99585.16
2023-03-30T09:09:08.391Z,99572.47
2023-03-30T09:10:12.585Z,99575.09
2023-03-30T09:11:18.667Z,99575.22
2023-03-30T09:12:25.321Z,99586.50
2023-03-30T09:13:31.728Z,99571.66
2023-03-30T09:14:37.332Z,99581.56
2023-03-30T09:15:43.001Z,99580.84
2023-03-30T09:16:52.461Z,99575.13
2023-03-30T09:18:00.737Z,99578.72
2023-03-30T09:19:04.940Z,99564.22
2023-03-30T09:20:13.049Z,99564.34
2023-03-30T09:21:15.983Z,99569.53
2023-03-30T09:22:18.846Z,99566.44
2023-03-30T09:23:21.577Z,99558.41
2023-03-30T09:24:25.874Z,99543.41
2023-03-30T09:25:33.978Z,99536.09
2023-03-30T09:26:41.635Z,99543.91
2023-03-30T09:27:51.891Z,99560.19
2023-03-30T09:29:03.668Z,99569.06
2023-03-30T09:30:18.236Z,99573.25
2023-03-30T09:31:25.073Z,99572.66
2023-03-30T09:32:32.052Z,99559.94
2023-03-30T09:33:43.220Z,99573.25
2023-03-30T09:34:48.312Z,99570.75
2023-03-30T09:36:02.580Z,99566.31
2023-03-30T09:37:07.485Z,99567.63
2023-03-30T09:38:12.300Z,99561.97
2023-03-30T09:39:18.505Z,99572.53
2023-03-30T09:40:32.347Z,99570.38
2023-03-30T09:41:47.937Z,99571.81
2023-03-30T09:42:56.560Z,99572.31
2023-03-30T09:44:01.432Z,99572.66
2023-03-30T09:45:09.688Z,99578.28
2023-03-30T09:46:12.661Z,99579.25
2023-03-30T09:47:23.188Z,99572.31
2023-03-30T09:48:27.126Z,99568.94
2023-03-30T09:49:30.636Z,99568.22
2023-03-30T09:50:37.993Z,99569.66
2023-03-30T09:51:54.319Z,99565.22
2023-03-30T09:53:00.404Z,99555.53
2023-03-30T09:54:05.102Z,99569.44
2023-03-30T09:55:27.809Z,99569.66
2023-03-30T09:56:38.194Z,99559.69
2023-03-30T09:57:42.278Z,99563.56
2023-03-30T09:58:45.022Z,99564.41
2023-03-30T09:59:49.123Z,99570.38
2023-03-30T10:01:08.362Z,99548.09
2023-03-30T10:02:19.418Z,99551.44
2023-03-30T10:03:24.269Z,99558.03
2023-03-30T10:04:27.267Z,99544.63
2023-03-30T10:05:31.380Z,99548.22
2023-03-30T10:06:38.405Z,99540.53
2023-03-30T10:07:43.182Z,99534.78
2023-03-30T10:08:51.542Z,99550.47
2023-03-30T10:09:54.705Z,99553.13
2023-03-30T10:10:59.088Z,99561.72
2023-03-30T10:12:02.030Z,99562.47
2023-03-30T10:13:07.080Z,99557.56
2023-03-30T10:14:28.980Z,99556.59
2023-03-30T10:15:35.437Z,99559.94
2023-03-30T10:16:38.233Z,99561.06
2023-03-30T10:17:40.849Z,99564.72
2023-03-30T10:18:45.703Z,99562.94
2023-03-30T10:19:50.489Z,99559.47
2023-03-30T10:21:02.553Z,99567.00
2023-03-30T10:22:17.054Z,99579.97
2023-03-30T10:23:20.283Z,99573.38
2023-03-30T10:24:24.248Z,99576.59
2023-03-30T10:25:29.692Z,99568.69
2023-03-30T10:26:34.592Z,99568.69
2023-03-30T10:27:40.571Z,99571.81
2023-03-30T10:28:53.543Z,99562.06
2023-03-30T10:29:56.212Z,99558.34
2023-03-30T10:31:01.569Z,99558.56
2023-03-30T10:32:11.495Z,99556.03
2023-03-30T10:33:13.276Z,99563.28
2023-03-30T10:34:19.012Z,99560.69
2023-03-30T10:35:22.805Z,99561.84
2023-03-30T10:36:30.772Z,99558.13
2023-03-30T10:37:34.294Z,99547.91
2023-03-30T10:38:37.347Z,99553.78
2023-03-30T10:39:40.894Z,99556.75
2023-03-30T10:40:45.701Z,99566.81
2023-03-30T10:41:48.543Z,99557.03
2023-03-30T10:42:55.381Z,99555.53
2023-03-30T10:43:58.018Z,99549.25
2023-03-30T10:45:01.888Z,99558.81
2023-03-30T10:46:19.270Z,99565.03
2023-03-30T10:47:40.895Z,99568.66
2023-03-30T10:48:53.621Z,99559.00
2023-03-30T10:50:02.214Z,99570.38
2023-03-30T10:51:10.401Z,99561.84
2023-03-30T10:52:17.504Z,99555.56
2023-03-30T10:53:29.191Z,99553.53
2023-03-30T10:54:34.107Z,99574.28
2023-03-30T10:55:42.034Z,99575.38
2023-03-30T10:56:46.332Z,99566.22
2023-03-30T10:57:54.535Z,99569.84
2023-03-30T10:59:15.806Z,99567.16
2023-03-30T11:00:32.740Z,99569.50
2023-03-30T11:01:43.728Z,99566.31
2023-03-30T11:02:51.869Z,99548.09
2023-03-30T11:03:58.040Z,99565.44
2023-03-30T11:05:04.656Z,99557.69
2023-03-30T11:06:11.242Z,99557.59
2023-03-30T11:07:17.474Z,99551.41
2023-03-30T11:08:22.746Z,99546.34
2023-03-30T11:09:27.974Z,99546.63
2023-03-30T11:10:32.868Z,99544.84
2023-03-30T11:11:38.109Z,99544.97
2023-03-30T11:12:44.618Z,99561.47
2023-03-30T11:13:51.318Z,99549.34
2023-03-30T11:14:56.567Z,99545.97
2023-03-30T11:16:01.951Z,99546.38
2023-03-30T11:17:09.000Z,99546.13
2023-03-30T11:18:16.098Z,99547.28
2023-03-30T11:19:21.721Z,99550.91
2023-03-30T11:20:28.355Z,99549.69
2023-03-30T11:21:35.106Z,99548.06
2023-03-30T11:22:39.695Z,99548.63
2023-03-30T11:23:46.976Z,99544.38
2023-03-30T11:24:50.394Z,99543.28
2023-03-30T11:26:01.960Z,99557.91
2023-03-30T11:27:07.889Z,99562.72
2023-03-30T11:28:16.679Z,99559.13
2023-03-30T11:29:28.538Z,99556.78
2023-03-30T11:30:32.778Z,99559.38
2023-03-30T11:31:45.164Z,99541.03
2023-03-30T11:32:53.076Z,99556.28
2023-03-30T11:33:59.838Z,99556.84
2023-03-30T11:35:08.042Z,99564.66
2023-03-30T11:36:18.789Z,99564.41
2023-03-30T11:37:27.231Z,99561.38
2023-03-30T11:38:36.937Z,99572.53
2023-03-30T11:39:47.215Z,99561.13
2023-03-30T11:40:53.080Z,99558.59
2023-03-30T11:41:59.688Z,99554.06
2023-03-30T11:43:02.529Z,99557.22
2023-03-30T11:44:04.504Z,99556.38
2023-03-30T11:45:19.582Z,99556.34
2023-03-30T11:46:25.651Z,99549.53
2023-03-30T11:47:46.513Z,99552.75
2023-03-30T11:49:11.299Z,99574.78
2023-03-30T11:50:24.982Z,99576.53
2023-03-30T11:51:37.868Z,99554.69
2023-03-30T11:52:46.074Z,99537.72
2023-03-30T11:53:54.928Z,99535.53
2023-03-30T11:55:24.351Z,99551.75
2023-03-30T11:56:33.275Z,99548.94
2023-03-30T11:57:37.775Z,99540.91
2023-03-30T11:58:43.795Z,99545.84
2023-03-30T11:59:53.358Z,99536.59
2023-03-30T12:01:05.514Z,99550.31
2023-03-30T12:02:15.699Z,99524.56
2023-03-30T12:03:28.111Z,99541.97
2023-03-30T12:04:38.640Z,99535.03
2023-03-30T12:05:44.030Z,99530.75
2023-03-30T12:06:51.716Z,99539.31
2023-03-30T12:08:00.487Z,99538.19
2023-03-30T12:09:19.178Z,99538.13
2023-03-30T12:10:25.669Z,99539.28
2023-03-30T12:11:32.130Z,99509.53
2023-03-30T12:12:39.060Z,99529.94
2023-03-30T12:13:51.126Z,99523.03
2023-03-30T12:15:04.307Z,99530.25
2023-03-30T12:16:09.375Z,99539.41
2023-03-30T12:17:25.628Z,99516.69
2023-03-30T12:18:36.618Z,99535.06
2023-03-30T12:19:55.495Z,99524.59
2023-03-30T12:21:11.967Z,99524.59
2023-03-30T12:22:15.561Z,99525.06
2023-03-30T12:23:33.221Z,99517.22
2023-03-30T12:24:40.150Z,99530.03
2023-03-30T12:25:51.412Z,99524.44
2023-03-30T12:27:05.252Z,99510.13
2023-03-30T12:28:13.874Z,99524.56
2023-03-30T12:29:44.437Z,99534.50
2023-03-30T12:30:48.412Z,99548.19
2023-03-30T12:32:05.129Z,99524.31
2023-03-30T12:33:12.932Z,99519.09
2023-03-30T12:34:14.764Z,99526.63
2023-03-30T12:35:57.056Z,99515.84
2023-03-30T12:37:02.448Z,99512.22
2023-03-30T12:38:06.027Z,99499.25
2023-03-30T12:39:15.660Z,99502.44
2023-03-30T12:40:22.173Z,99513.81
2023-03-30T12:41:27.537Z,99490.22
2023-03-30T12:42:34.819Z,99480.78
2023-03-30T12:43:48.829Z,99485.22
2023-03-30T12:45:05.470Z,99481.13
2023-03-30T12:46:14.082Z,99470.34
2023-03-30T12:47:31.076Z,99472.59
2023-03-30T12:48:39.930Z,99477.59
2023-03-30T12:49:54.558Z,99465.88
2023-03-30T12:51:07.660Z,99475.59
2023-03-30T12:52:14.391Z,99465.13
2023-03-30T12:53:39.354Z,99477.41